Genco Leader — VRYR8 — position and weather

sailwx.info

Track history (hours):
 
Tides and Currents Weather Stations Pressure Air Temp Water Temp Dewpoint Dewpoint Depression Visibility Wind Speed Wind Dir Waves Ship Positions

Genco Leader

Last reported at 2015-Jul-08 07:32 UTC. Time now 2015-Aug-03 10:42 UTC.
Position S 34°60' W 057°13'.
Warning: this ship's position is 26 days out of date.

Length 225 m; draft 10.5 m.

Type: Cargo ship. MMSI: 477132000.

Date/timePositionNaut miles runAvg speedWind from/ knotsBaromVisibWave heightAir tempDewpointWater temp
2015-Jul-08 07:32S 34°60' W 057°13'7 7.3
2015-Jul-08 06:33S 34°54' W 057°18'7 7.2
2015-Jul-08 05:33S 34°50' W 057°25'6 6.3
2015-Jul-08 04:34S 34°47' W 057°32'8 8.3
2015-Jul-08 03:34S 34°44' W 057°42'5 5.4
2015-Jul-08 02:33S 34°44' W 057°48'0 0.0
2015-Jul-08 01:33S 34°44' W 057°48'0 0.0
2015-Jul-08 00:30S 34°44' W 057°48'0 0.0
2015-Jul-07 23:33S 34°44' W 057°48'0 0.1
2015-Jul-07 22:33S 34°44' W 057°48'0 0.2
2015-Jul-07 21:30S 34°44' W 057°48'0 0.0
2015-Jul-07 20:33S 34°44' W 057°48'0 0.0
2015-Jul-07 19:33S 34°44' W 057°48'0 0.1
2015-Jul-07 18:33S 34°44' W 057°48'2 2.1
2015-Jul-07 17:33S 34°43' W 057°50'7 7.4
2015-Jul-07 16:33S 34°41' W 057°59'1010.0
2015-Jul-07 15:33S 34°37' W 058°10'9 9.0
2015-Jul-07 14:33S 34°32' W 058°19'11 8.2
2015-Jul-07 13:16S 34°24' W 058°27'6 8.6
2015-Jul-07 12:33S 34°18' W 058°30'  
2015-Jul-03 07:19S 34°16' W 058°03'810.6
2015-Jul-03 06:33S 34°23' W 057°60'1010.4
2015-Jul-03 05:33S 34°33' W 057°56'9 9.0
2015-Jul-03 04:33S 34°42' W 057°54'7 7.3
2015-Jul-03 03:33S 34°45' W 057°46'1010.2
2015-Jul-03 02:33S 34°46' W 057°34'  
Track history (hours):
 
Tides and Currents Weather Stations Pressure Air Temp Water Temp Dewpoint Dewpoint Depression Visibility Wind Speed Wind Dir Waves Ship Positions

Genco Leader

Last reported at 2015-Jul-08 07:32 UTC. Time now 2015-Aug-03 10:42 UTC.
Position S 34°60' W 057°13'.
Warning: this ship's position is 26 days out of date.

Length 225 m; draft 10.5 m.

Type: Cargo ship. MMSI: 477132000.

Date/timePositionNaut miles runAvg speedWind from/ knotsBaromVisibWave heightAir tempDewpointWater temp
2015-Jul-08 07:32S 34°60' W 057°13'7 7.3
2015-Jul-08 06:33S 34°54' W 057°18'7 7.2
2015-Jul-08 05:33S 34°50' W 057°25'6 6.3
2015-Jul-08 04:34S 34°47' W 057°32'8 8.3
2015-Jul-08 03:34S 34°44' W 057°42'5 5.4
2015-Jul-08 02:33S 34°44' W 057°48'0 0.0
2015-Jul-08 01:33S 34°44' W 057°48'0 0.0
2015-Jul-08 00:30S 34°44' W 057°48'0 0.0
2015-Jul-07 23:33S 34°44' W 057°48'0 0.1
2015-Jul-07 22:33S 34°44' W 057°48'0 0.2
2015-Jul-07 21:30S 34°44' W 057°48'0 0.0
2015-Jul-07 20:33S 34°44' W 057°48'0 0.0
2015-Jul-07 19:33S 34°44' W 057°48'0 0.1
2015-Jul-07 18:33S 34°44' W 057°48'2 2.1
2015-Jul-07 17:33S 34°43' W 057°50'7 7.4
2015-Jul-07 16:33S 34°41' W 057°59'1010.0
2015-Jul-07 15:33S 34°37' W 058°10'9 9.0
2015-Jul-07 14:33S 34°32' W 058°19'11 8.2
2015-Jul-07 13:16S 34°24' W 058°27'6 8.6
2015-Jul-07 12:33S 34°18' W 058°30'  
2015-Jul-03 07:19S 34°16' W 058°03'810.6
2015-Jul-03 06:33S 34°23' W 057°60'1010.4
2015-Jul-03 05:33S 34°33' W 057°56'9 9.0
2015-Jul-03 04:33S 34°42' W 057°54'7 7.3
2015-Jul-03 03:33S 34°45' W 057°46'1010.2
2015-Jul-03 02:33S 34°46' W 057°34'  

Dump ship's entire track history